Time;durP1;ratioP1;P1;durP2;ratioP2;P2;SDS_P1;SDS_P2;PMS_P1;PMS_P2;Temp;Humidity;BMP_temperature;BMP_pressure;BME280_temperature;BME280_humidity;BME280_pressure;Samples;Min_cycle;Max_cycle;Signal;HPM_P1;HPM_P2
2023/09/23 12:57:34;;;;;;;;;5.33;4.33;;;;;21.41;86.39;99397.09;6288063;20;3454959;-52
2023/09/23 13:00:06;;;;;;;;;8.20;4.20;;;;;21.31;88.36;99378.09;6275834;20;2748260;-53
2023/09/23 13:02:36;;;;;;;;;4.00;4.00;;;;;21.13;88.45;99378.25;6245550;20;2751430;-51
2023/09/23 13:05:08;;;;;;;;;4.00;4.00;;;;;21.22;89.29;99376.38;6329914;20;2752411;-51
2023/09/23 13:07:37;;;;;;;;;6.60;4.80;;;;;21.00;90.76;99388.84;6331568;20;2738197;-51
2023/09/23 13:10:07;;;;;;;;;5.00;5.00;;;;;20.95;92.62;99392.06;6313817;20;2627493;-53
2023/09/23 13:12:39;;;;;;;;;6.80;5.00;;;;;20.87;93.25;99394.78;6363738;20;2739911;-50
2023/09/23 13:15:09;;;;;;;;;5.60;4.60;;;;;20.99;92.79;99408.97;6360495;20;2734676;-49
2023/09/23 13:17:38;;;;;;;;;5.00;5.00;;;;;20.68;93.64;99420.50;6362467;20;2746494;-51
2023/09/23 13:20:10;;;;;;;;;6.00;6.00;;;;;20.63;95.39;99422.00;6328087;20;2739855;-52
2023/09/23 13:22:40;;;;;;;;;5.60;5.60;;;;;20.43;93.67;99415.94;6329772;20;2739949;-52
2023/09/23 13:25:10;;;;;;;;;7.00;7.00;;;;;20.68;93.69;99414.19;6335783;20;2734686;-52
2023/09/23 13:27:39;;;;;;;;;9.00;7.33;;;;;20.49;95.68;99401.66;6342036;20;2756533;-52
2023/09/23 13:30:09;;;;;;;;;7.33;7.33;;;;;20.56;96.20;99391.81;6338179;20;2737824;-52
2023/09/23 13:32:39;;;;;;;;;8.20;8.00;;;;;20.56;96.51;99387.22;6364256;20;2763578;-54
2023/09/23 13:35:09;;;;;;;;;9.00;6.50;;;;;20.39;97.19;99380.81;6258047;20;2728480;-49
2023/09/23 13:37:39;;;;;;;;;9.67;7.33;;;;;20.48;96.40;99389.88;6309182;20;2763852;-50
2023/09/23 13:40:13;;;;;;;;;7.40;5.80;;;;;20.48;96.58;99389.03;6362309;20;2733609;-51
2023/09/23 13:42:41;;;;;;;;;9.33;9.33;;;;;20.35;96.67;99389.47;6335759;20;2770141;-52
2023/09/23 13:45:10;;;;;;;;;15.67;14.33;;;;;20.27;96.11;99386.72;6337729;20;2485821;-52
2023/09/23 13:47:39;;;;;;;;;14.00;14.00;;;;;20.43;96.62;99385.94;6336474;20;2483733;-53
2023/09/23 13:50:09;;;;;;;;;14.00;14.00;;;;;20.35;97.14;99384.91;6338376;20;2483777;-54
2023/09/23 13:52:38;;;;;;;;;20.00;19.00;;;;;20.27;97.92;99397.63;6335093;20;2844073;-53
2023/09/23 13:55:09;;;;;;;;;18.00;18.00;;;;;20.26;97.86;99391.34;6300262;20;2839156;-52
2023/09/23 13:57:38;;;;;;;;;17.33;17.33;;;;;20.02;99.30;99397.53;6309418;20;3571131;-56
2023/09/23 14:00:08;;;;;;;;;16.33;16.33;;;;;20.05;100.00;99399.06;6308587;20;3564917;-50
2023/09/23 14:02:39;;;;;;;;;17.00;14.33;;;;;20.09;98.07;99395.00;6305802;20;2483769;-58
2023/09/23 14:05:09;;;;;;;;;14.33;14.33;;;;;19.88;97.03;99403.56;6340102;20;3539893;-56
2023/09/23 14:07:38;;;;;;;;;14.00;14.00;;;;;19.68;97.38;99409.22;6326910;20;3522303;-55
2023/09/23 14:10:08;;;;;;;;;16.00;16.00;;;;;19.72;97.90;99415.22;6311143;20;2819057;-56
2023/09/23 14:12:52;;;;;;;;;14.67;13.67;;;;;19.69;98.35;99427.28;6283460;20;3540253;-56
2023/09/23 14:15:20;;;;;;;;;16.00;16.00;;;;;19.75;98.67;99439.44;6313484;20;2483617;-54
2023/09/23 14:17:49;;;;;;;;;14.00;14.00;;;;;19.58;99.56;99440.28;6318488;20;3533798;-58
2023/09/23 14:20:18;;;;;;;;;13.00;13.00;;;;;19.42;99.59;99446.44;6315925;20;2483745;-55
2023/09/23 14:22:48;;;;;;;;;14.67;13.33;;;;;19.33;99.73;99450.13;6312078;20;3531535;-55
2023/09/23 14:25:18;;;;;;;;;13.50;13.50;;;;;19.19;100.00;99462.38;6277160;20;2806700;-51
2023/09/23 14:27:46;;;;;;;;;14.00;12.67;;;;;19.01;100.00;99455.09;6281814;20;3519015;-57
2023/09/23 14:30:16;;;;;;;;;17.33;13.33;;;;;18.88;100.00;99454.63;6278513;20;3538922;-57
2023/09/23 14:32:44;;;;;;;;;17.67;14.00;;;;;19.06;100.00;99443.72;6282388;20;2492057;-56
2023/09/23 14:35:13;;;;;;;;;14.00;14.00;;;;;18.80;100.00;99451.78;6310779;20;3526675;-52
2023/09/23 14:37:44;;;;;;;;;12.00;12.00;;;;;18.88;99.74;99449.16;6313340;20;3530476;-51
2023/09/23 14:40:13;;;;;;;;;16.00;15.50;;;;;18.77;100.00;99450.25;6314711;20;2818007;-58
2023/09/23 14:42:42;;;;;;;;;13.67;13.67;;;;;18.62;99.97;99451.72;6282500;20;2483605;-54
2023/09/23 14:45:11;;;;;;;;;18.00;17.00;;;;;18.58;100.00;99442.16;6314119;20;3561814;-53
2023/09/23 14:47:45;;;;;;;;;13.67;12.67;;;;;18.64;100.00;99431.53;6284961;20;2483719;-57
2023/09/23 14:50:14;;;;;;;;;17.33;16.33;;;;;18.55;100.00;99424.28;6309108;20;2483615;-54
2023/09/23 14:52:44;;;;;;;;;14.67;14.67;;;;;18.63;100.00;99418.94;6311845;20;3531497;-55
2023/09/23 14:55:14;;;;;;;;;18.00;15.00;;;;;18.43;100.00;99425.47;6274604;20;2818083;-55
2023/09/23 14:57:43;;;;;;;;;19.00;17.00;;;;;18.53;100.00;99418.13;6280819;20;2836133;-56
2023/09/23 15:00:14;;;;;;;;;16.00;16.00;;;;;18.33;100.00;99419.25;6277849;20;2828434;-54
2023/09/23 15:02:42;;;;;;;;;13.67;13.67;;;;;18.41;100.00;99419.38;6280609;20;2492066;-58
2023/09/23 15:05:12;;;;;;;;;16.33;15.33;;;;;18.39;100.00;99400.47;6313102;20;3545071;-55
2023/09/23 15:07:41;;;;;;;;;13.67;13.67;;;;;18.60;100.00;99375.72;6308078;20;3538151;-54
2023/09/23 15:10:10;;;;;;;;;12.67;12.67;;;;;18.49;100.00;99375.97;6285870;20;2487773;-55
2023/09/23 15:12:39;;;;;;;;;13.00;12.33;;;;;17.95;100.00;99374.94;6313827;20;2483804;-56
2023/09/23 15:15:08;;;;;;;;;14.33;12.33;;;;;18.14;100.00;99364.00;6313799;20;3509641;-52
2023/09/23 15:17:41;;;;;;;;;14.00;14.00;;;;;18.26;100.00;99382.81;6312334;20;2494102;-55
2023/09/23 15:20:11;;;;;;;;;19.00;17.50;;;;;18.46;100.00;99406.16;6309318;20;2835730;-60
2023/09/23 15:22:40;;;;;;;;;14.67;14.33;;;;;18.31;100.00;99410.41;6280983;20;2483603;-60
2023/09/23 15:25:11;;;;;;;;;13.67;13.67;;;;;18.28;100.00;99416.13;6314322;20;3536864;-61
2023/09/23 15:27:40;;;;;;;;;11.00;11.00;;;;;18.41;100.00;99405.78;6313206;20;3514883;-61
2023/09/23 15:30:09;;;;;;;;;11.00;11.00;;;;;18.44;100.00;99419.06;6281206;20;3513828;-60
2023/09/23 15:32:39;;;;;;;;;13.00;13.00;;;;;18.43;100.00;99439.06;6312433;20;3513944;-56
2023/09/23 15:35:08;;;;;;;;;11.33;11.33;;;;;18.27;100.00;99438.88;6312290;20;2483626;-60
2023/09/23 15:37:37;;;;;;;;;12.67;11.67;;;;;18.32;100.00;99439.28;6310963;20;3518737;-62
2023/09/23 15:40:09;;;;;;;;;12.67;12.67;;;;;18.11;100.00;99445.78;6307857;20;3522132;-57
2023/09/23 15:42:38;;;;;;;;;13.00;13.00;;;;;18.21;100.00;99454.75;6315051;20;2804846;-60
2023/09/23 15:45:08;;;;;;;;;12.00;12.00;;;;;17.85;100.00;99461.03;6312134;20;2791944;-61
2023/09/23 15:47:39;;;;;;;;;12.00;11.00;;;;;18.01;100.00;99455.88;6311338;20;3517972;-60
2023/09/23 15:50:09;;;;;;;;;9.00;9.00;;;;;17.97;100.00;99460.72;6308539;20;2744056;-59
2023/09/23 15:52:39;;;;;;;;;10.00;8.80;;;;;17.88;100.00;99455.34;6331989;20;2761775;-59
2023/09/23 15:55:11;;;;;;;;;12.33;10.33;;;;;17.88;100.00;99467.03;6277136;20;2789187;-61
2023/09/23 15:57:39;;;;;;;;;9.33;9.00;;;;;18.11;100.00;99486.53;6310982;20;2753567;-57
2023/09/23 16:00:09;;;;;;;;;8.00;8.00;;;;;17.84;100.00;99486.50;6317348;20;2734945;-60
2023/09/23 16:02:38;;;;;;;;;11.67;11.67;;;;;18.01;100.00;99485.75;6313364;20;2791936;-61
2023/09/23 16:05:10;;;;;;;;;10.67;9.67;;;;;18.17;100.00;99485.13;6307208;20;3498207;-60
2023/09/23 16:07:39;;;;;;;;;10.00;10.00;;;;;17.99;100.00;99490.47;6313049;20;2772338;-61
2023/09/23 16:10:10;;;;;;;;;14.00;11.00;;;;;18.08;100.00;99500.44;6307325;20;3512808;-60
2023/09/23 16:12:38;;;;;;;;;10.00;9.00;;;;;18.09;100.00;99502.16;6309635;20;2777360;-61
2023/09/23 16:15:07;;;;;;;;;10.00;10.00;;;;;18.17;100.00;99498.72;6314157;20;2788903;-61
2023/09/23 16:17:36;;;;;;;;;16.67;13.67;;;;;17.98;100.00;99503.19;6310546;20;2810701;-56
2023/09/23 16:20:06;;;;;;;;;18.67;14.67;;;;;18.05;100.00;99492.59;6311853;20;2822216;-61
2023/09/23 16:22:36;;;;;;;;;25.67;23.00;;;;;18.18;100.00;99484.97;6307021;20;2485799;-60
2023/09/23 16:25:05;;;;;;;;;27.00;24.33;;;;;17.93;100.00;99474.72;6306509;20;3590902;-59
2023/09/23 16:27:37;;;;;;;;;11.33;11.00;;;;;18.12;100.00;99485.56;6277980;20;3510708;-59
2023/09/23 16:30:06;;;;;;;;;12.33;12.00;;;;;17.75;100.00;99485.47;6307742;20;3512805;-60
2023/09/23 16:32:35;;;;;;;;;13.00;11.67;;;;;17.86;100.00;99481.78;6304742;20;3515952;-60
2023/09/23 16:35:09;;;;;;;;;11.60;11.60;;;;;17.42;100.00;99486.78;6329490;20;2795105;-59
2023/09/23 16:37:38;;;;;;;;;9.00;9.00;;;;;17.48;100.00;99480.78;6275951;20;2751284;-61
2023/09/23 16:40:09;;;;;;;;;9.00;9.00;;;;;17.91;100.00;99484.91;6314605;20;2754474;-59
2023/09/23 16:42:37;;;;;;;;;18.33;18.33;;;;;17.97;100.00;99497.91;6309242;20;3558600;-59
2023/09/23 16:45:06;;;;;;;;;11.33;11.33;;;;;17.85;100.00;99493.63;6277842;20;2791004;-60
2023/09/23 16:47:35;;;;;;;;;10.00;9.33;;;;;17.80;100.00;99493.19;6310216;20;2774241;-61
2023/09/23 16:50:06;;;;;;;;;10.33;10.33;;;;;17.93;100.00;99497.34;6307339;20;3516320;-59
2023/09/23 16:52:34;;;;;;;;;10.33;8.67;;;;;17.76;100.00;99501.59;6312652;20;2763810;-61
2023/09/23 16:55:02;;;;;;;;;9.67;9.33;;;;;17.82;100.00;99512.94;6318344;20;1809660;-59
2023/09/23 16:57:31;;;;;;;;;11.00;11.00;;;;;17.47;100.00;99517.06;6282950;20;3518015;-60
2023/09/23 17:00:01;;;;;;;;;11.00;11.00;;;;;17.56;100.00;99532.47;6307667;20;2792089;-61
2023/09/23 17:02:30;;;;;;;;;11.67;11.67;;;;;17.81;100.00;99535.66;6309826;20;2794237;-59
2023/09/23 17:04:59;;;;;;;;;14.00;12.00;;;;;17.52;100.00;99533.78;6303329;20;3514911;-61
2023/09/23 17:07:28;;;;;;;;;14.33;11.00;;;;;17.58;100.00;99541.34;6304143;20;2796178;-62
2023/09/23 17:09:56;;;;;;;;;11.00;11.00;;;;;17.60;100.00;99541.22;6306069;20;3515878;-61
2023/09/23 17:12:25;;;;;;;;;12.67;11.00;;;;;17.64;100.00;99545.34;6304528;20;3520144;-61
2023/09/23 17:14:54;;;;;;;;;13.00;11.00;;;;;17.63;100.00;99555.34;6305990;20;2791973;-61
2023/09/23 17:17:22;;;;;;;;;12.00;11.00;;;;;17.66;100.00;99559.66;6308512;20;2788927;-58
2023/09/23 17:19:52;;;;;;;;;10.00;8.00;;;;;17.64;100.00;99573.38;6302403;20;2763857;-57
2023/09/23 17:22:20;;;;;;;;;9.00;9.00;;;;;17.52;100.00;99563.66;6301365;20;2739923;-60
2023/09/23 17:24:49;;;;;;;;;9.67;9.67;;;;;17.60;100.00;99571.94;6311797;20;2764918;-61
2023/09/23 17:27:18;;;;;;;;;14.67;10.00;;;;;17.55;100.00;99571.50;6302578;20;2789842;-58
2023/09/23 17:29:46;;;;;;;;;10.33;9.00;;;;;17.49;100.00;99559.38;6303478;20;2773412;-61
2023/09/23 17:32:15;;;;;;;;;9.67;8.33;;;;;17.39;100.00;99557.63;6303857;20;2757691;-60
2023/09/23 17:34:44;;;;;;;;;10.00;10.00;;;;;17.39;100.00;99555.78;6302774;20;2777560;-61
2023/09/23 17:37:15;;;;;;;;;9.00;9.00;;;;;17.26;100.00;99550.63;6352705;20;1921154;-60
2023/09/23 17:39:44;;;;;;;;;12.00;11.00;;;;;17.39;100.00;99538.66;6307185;20;2789905;-61
2023/09/23 17:42:12;;;;;;;;;17.67;15.67;;;;;17.38;100.00;99536.91;6305034;20;3556573;-61
2023/09/23 17:44:43;;;;;;;;;15.00;15.00;;;;;17.17;100.00;99529.75;6277241;20;2483610;-61
2023/09/23 17:47:12;;;;;;;;;20.00;18.50;;;;;17.19;100.00;99516.91;6278307;20;2841968;-60
2023/09/23 17:49:41;;;;;;;;;20.00;18.33;;;;;17.21;100.00;99523.03;6282207;20;3571171;-60
2023/09/23 17:52:10;;;;;;;;;17.00;17.00;;;;;17.22;100.00;99524.78;6277063;20;2831597;-59
2023/09/23 17:54:39;;;;;;;;;25.00;24.33;;;;;17.09;100.00;99519.63;6284798;20;3589878;-60
2023/09/23 17:57:07;;;;;;;;;19.33;14.67;;;;;17.15;100.00;99523.63;6275770;20;3547134;-56
2023/09/23 17:59:36;;;;;;;;;13.00;12.00;;;;;17.05;100.00;99511.88;6285317;20;2796230;-61
2023/09/23 18:02:05;;;;;;;;;12.67;10.67;;;;;17.14;100.00;99507.47;6277934;20;3510768;-59
2023/09/23 18:04:34;;;;;;;;;10.33;10.33;;;;;17.08;100.00;99506.19;6307996;20;2787843;-60
2023/09/23 18:07:04;;;;;;;;;9.67;9.67;;;;;16.91;100.00;99498.75;6304073;20;3488822;-61
2023/09/23 18:09:32;;;;;;;;;14.50;12.00;;;;;17.02;100.00;99506.75;6313818;20;2788852;-58
2023/09/23 18:12:01;;;;;;;;;12.67;12.67;;;;;16.84;100.00;99510.13;6279414;20;3520076;-60
2023/09/23 18:14:30;;;;;;;;;9.00;9.00;;;;;16.88;100.00;99505.31;6311408;20;2756610;-59
2023/09/23 18:17:01;;;;;;;;;12.00;11.00;;;;;16.89;100.00;99502.44;6309408;20;3517994;-60
2023/09/23 18:19:30;;;;;;;;;12.67;10.00;;;;;16.86;100.00;99491.88;6308504;20;2783639;-61
2023/09/23 18:21:58;;;;;;;;;9.00;9.00;;;;;16.82;100.00;99492.28;6317621;20;2754535;-61
2023/09/23 18:24:26;;;;;;;;;10.33;10.33;;;;;17.02;100.00;99474.19;6281434;20;3504458;-62
2023/09/23 18:26:55;;;;;;;;;11.33;10.00;;;;;16.92;100.00;99484.16;6305201;20;3498309;-60
2023/09/23 18:29:24;;;;;;;;;14.00;10.67;;;;;16.86;100.00;99491.88;6309023;20;3515879;-63
2023/09/23 18:31:53;;;;;;;;;12.33;11.00;;;;;17.03;100.00;99489.47;6277084;20;3514977;-62
2023/09/23 18:34:23;;;;;;;;;8.60;8.60;;;;;16.99;100.00;99472.63;6335086;20;2746104;-62
2023/09/23 18:36:57;;;;;;;;;12.00;9.00;;;;;16.95;100.00;99479.31;6282273;20;2777479;-62
2023/09/23 18:39:26;;;;;;;;;9.33;8.00;;;;;17.09;100.00;99478.06;6310259;20;2762929;-62
2023/09/23 18:41:55;;;;;;;;;7.00;7.00;;;;;17.12;100.00;99469.66;6332599;20;2738845;-63
2023/09/23 18:44:25;;;;;;;;;9.00;9.00;;;;;17.10;100.00;99467.06;6334919;20;2740018;-63
2023/09/23 18:46:55;;;;;;;;;9.00;8.40;;;;;17.04;100.00;99461.38;6299198;20;2739880;-61
2023/09/23 18:49:22;;;;;;;;;6.50;6.50;;;;;16.97;100.00;99465.63;6280040;20;2748324;-62
2023/09/23 18:51:51;;;;;;;;;7.00;7.00;;;;;16.86;100.00;99482.88;6284908;20;2734697;-59
2023/09/23 18:54:20;;;;;;;;;8.67;7.33;;;;;16.56;100.00;99483.75;6309917;20;2745134;-61
2023/09/23 18:56:47;;;;;;;;;7.00;7.00;;;;;16.76;100.00;99493.66;6310449;20;2746164;-60
2023/09/23 18:59:17;;;;;;;;;9.80;7.80;;;;;16.54;100.00;99488.47;6301327;20;2752421;-62
2023/09/23 19:01:54;;;;;;;;;7.80;7.80;;;;;16.72;100.00;99499.50;6304802;20;2735762;-62
2023/09/23 19:04:27;;;;;;;;;7.00;7.00;;;;;16.68;100.00;99515.19;6336964;20;2737871;-61
2023/09/23 19:06:56;;;;;;;;;9.00;9.00;;;;;16.58;100.00;99520.56;6331589;20;2739991;-62
2023/09/23 19:09:26;;;;;;;;;8.40;8.00;;;;;16.61;100.00;99530.28;6333653;20;2747238;-62
2023/09/23 19:11:54;;;;;;;;;7.50;7.50;;;;;16.58;100.00;99525.13;6311052;20;2746132;-63
2023/09/23 19:14:24;;;;;;;;;8.00;8.00;;;;;16.42;100.00;99537.34;6307840;20;2729537;-62
2023/09/23 19:16:54;;;;;;;;;7.40;7.00;;;;;16.68;100.00;99542.31;6328983;20;2736839;-62
2023/09/23 19:19:24;;;;;;;;;7.40;7.40;;;;;16.79;100.00;99549.50;6337171;20;2731552;-61
2023/09/23 19:21:51;;;;;;;;;8.00;8.00;;;;;16.49;100.00;99553.94;6308866;20;2737824;-60
2023/09/23 19:24:19;;;;;;;;;8.50;8.50;;;;;16.35;100.00;99557.84;6285260;20;2747193;-62
2023/09/23 19:26:49;;;;;;;;;11.67;8.33;;;;;16.51;100.00;99549.22;6278660;20;2778399;-61
2023/09/23 19:29:25;;;;;;;;;9.67;8.00;;;;;16.56;100.00;99554.22;6306178;20;2763926;-63
2023/09/23 19:31:55;;;;;;;;;9.33;8.33;;;;;16.50;100.00;99561.06;6307451;20;2748308;-60
2023/09/23 19:34:26;;;;;;;;;11.33;11.33;;;;;16.85;100.00;99566.09;6307626;20;2786932;-62
2023/09/23 19:36:58;;;;;;;;;15.33;14.33;;;;;16.46;100.00;99570.47;6301855;20;3533601;-59
2023/09/23 19:39:26;;;;;;;;;11.00;11.00;;;;;16.62;100.00;99569.97;6312939;20;2788842;-60
2023/09/23 19:41:56;;;;;;;;;8.00;8.00;;;;;16.51;100.00;99559.19;6298373;20;1814961;-58
2023/09/23 19:44:30;;;;;;;;;9.00;9.00;;;;;16.79;100.00;99552.22;6308103;20;2762878;-60
2023/09/23 19:47:04;;;;;;;;;10.00;9.00;;;;;16.88;100.00;99532.41;6299399;20;2772236;-62
2023/09/23 19:49:36;;;;;;;;;11.20;11.20;;;;;17.04;100.00;99513.75;6330227;20;2788800;-61
2023/09/23 19:52:04;;;;;;;;;11.50;10.50;;;;;17.05;100.00;99520.03;6275828;20;2794004;-62
2023/09/23 19:54:34;;;;;;;;;12.00;11.50;;;;;16.89;100.00;99521.41;6278407;20;2793163;-62
2023/09/23 19:57:02;;;;;;;;;12.50;11.00;;;;;16.84;100.00;99515.53;6273419;20;2790958;-58
2023/09/23 19:59:32;;;;;;;;;12.00;10.40;;;;;16.66;100.00;99528.00;6303916;20;2792070;-57
2023/09/23 20:02:00;;;;;;;;;14.00;10.00;;;;;16.62;100.00;99543.72;6283840;20;2789934;-61
2023/09/23 20:04:28;;;;;;;;;8.00;8.00;;;;;16.60;100.00;99544.84;6272051;20;2750270;-61
2023/09/23 20:06:57;;;;;;;;;9.00;9.00;;;;;16.78;100.00;99529.66;6274639;20;2752514;-61
2023/09/23 20:09:26;;;;;;;;;10.33;10.00;;;;;16.86;100.00;99521.69;6307567;20;2786871;-61
2023/09/23 20:11:54;;;;;;;;;12.00;9.00;;;;;16.85;100.00;99524.53;6307292;20;2780578;-61
2023/09/23 20:14:24;;;;;;;;;9.00;7.80;;;;;16.77;100.00;99538.81;6333730;20;2751332;-61
2023/09/23 20:16:54;;;;;;;;;12.40;9.40;;;;;16.83;100.00;99548.25;6298243;20;2786746;-59
2023/09/23 20:19:22;;;;;;;;;11.00;8.00;;;;;16.63;100.00;99555.41;6288698;20;2756593;-59
2023/09/23 20:21:51;;;;;;;;;8.67;8.67;;;;;16.58;100.00;99557.66;6279163;20;2744093;-60
2023/09/23 20:24:18;;;;;;;;;10.00;8.00;;;;;16.58;100.00;99557.66;6320966;20;2635685;-59
2023/09/23 20:26:49;;;;;;;;;7.00;7.00;;;;;16.67;100.00;99560.44;6303126;20;2723297;-61
2023/09/23 20:29:20;;;;;;;;;6.80;6.80;;;;;16.67;100.00;99562.28;6333953;20;2735698;-62
2023/09/23 20:31:49;;;;;;;;;9.00;8.33;;;;;16.63;100.00;99571.66;6304158;20;2740248;-60
2023/09/23 20:34:17;;;;;;;;;10.00;6.00;;;;;16.74;100.00;99571.56;6307965;20;2753445;-58
2023/09/23 20:36:47;;;;;;;;;9.40;9.00;;;;;16.75;100.00;99569.75;6298514;20;2764946;-61
2023/09/23 20:39:16;;;;;;;;;8.00;8.00;;;;;16.54;100.00;99562.50;6277867;20;2737860;-60
2023/09/23 20:41:43;;;;;;;;;8.50;8.50;;;;;16.54;100.00;99546.25;6278926;20;2735703;-61
2023/09/23 20:44:15;;;;;;;;;7.57;7.57;;;;;16.62;100.00;99522.03;6324661;20;3456025;-62
2023/09/23 20:46:45;;;;;;;;;6.20;6.00;;;;;16.53;100.00;99516.56;6330280;20;2748194;-61
2023/09/23 20:49:14;;;;;;;;;7.80;6.40;;;;;16.52;100.00;99509.44;6330914;20;2745061;-56
2023/09/23 20:51:48;;;;;;;;;7.00;7.00;;;;;16.71;100.00;99497.78;6331686;20;2738838;-61
2023/09/23 20:54:17;;;;;;;;;7.00;6.80;;;;;16.50;100.00;99501.44;6330334;20;2735762;-60
2023/09/23 20:56:47;;;;;;;;;5.00;5.00;;;;;16.67;100.00;99497.22;6329296;20;2741958;-60
2023/09/23 20:59:17;;;;;;;;;6.80;6.80;;;;;16.54;100.00;99485.75;6334296;20;2740407;-59
2023/09/23 21:01:45;;;;;;;;;8.00;7.00;;;;;16.43;100.00;99487.56;6306420;20;2748203;-61
2023/09/23 21:04:15;;;;;;;;;7.00;5.20;;;;;16.63;100.00;99487.63;6304868;20;2739886;-58
2023/09/23 21:06:45;;;;;;;;;9.20;6.40;;;;;16.30;100.00;99473.41;6328489;20;2745206;-61
2023/09/23 21:09:15;;;;;;;;;6.60;6.40;;;;;16.52;100.00;99464.22;6302341;20;2744103;-61
2023/09/23 21:11:45;;;;;;;;;7.00;7.00;;;;;16.21;100.00;99447.97;6330452;20;2745131;-62
2023/09/23 21:14:15;;;;;;;;;6.40;6.40;;;;;16.07;100.00;99450.22;6331691;20;2739916;-62
2023/09/23 21:16:45;;;;;;;;;6.60;6.60;;;;;16.02;100.00;99440.63;6325821;20;2740908;-62
2023/09/23 21:19:14;;;;;;;;;6.00;6.00;;;;;16.04;100.00;99426.09;6320230;20;2736944;-62
2023/09/23 21:21:42;;;;;;;;;7.00;7.00;;;;;16.38;100.00;99432.94;6284605;20;2743195;-61
2023/09/23 21:24:12;;;;;;;;;7.60;7.00;;;;;16.38;100.00;99449.19;6309213;20;2737853;-60
2023/09/23 21:26:41;;;;;;;;;9.00;8.00;;;;;16.32;100.00;99471.41;6329968;20;2749312;-59
2023/09/23 21:29:09;;;;;;;;;10.00;7.00;;;;;16.30;100.00;99489.66;6287149;20;2754518;-62
2023/09/23 21:31:38;;;;;;;;;11.00;9.00;;;;;16.29;100.00;99493.34;6281233;20;2764980;-62
2023/09/23 21:34:07;;;;;;;;;9.40;6.80;;;;;16.39;100.00;99505.09;6306303;20;2750311;-61
2023/09/23 21:36:39;;;;;;;;;8.00;7.00;;;;;16.36;100.00;99516.22;6332635;20;2735894;-61
2023/09/23 21:39:09;;;;;;;;;9.00;7.00;;;;;16.33;100.00;99500.22;6337137;20;2736731;-61
2023/09/23 21:41:38;;;;;;;;;6.20;6.00;;;;;16.34;100.00;99504.63;6334857;20;2739850;-62
2023/09/23 21:44:09;;;;;;;;;7.00;7.00;;;;;16.36;100.00;99510.78;6341145;20;2735695;-61
2023/09/23 21:46:38;;;;;;;;;7.20;6.60;;;;;16.25;100.00;99510.88;6336179;20;2736769;-60
2023/09/23 21:49:08;;;;;;;;;7.60;7.00;;;;;16.21;100.00;99502.16;6338530;20;2736849;-60
2023/09/23 21:51:36;;;;;;;;;7.00;7.00;;;;;16.14;100.00;99503.72;6313879;20;2744088;-60
2023/09/23 21:54:05;;;;;;;;;10.33;5.67;;;;;16.11;100.00;99486.84;6283154;20;2764909;-62
2023/09/23 21:56:35;;;;;;;;;6.80;6.80;;;;;16.40;100.00;99501.41;6332566;20;2748246;-60
2023/09/23 21:59:12;;;;;;;;;6.00;6.00;;;;;15.97;100.00;99505.16;6337591;20;2742997;-61
2023/09/23 22:01:40;;;;;;;;;4.50;3.00;;;;;16.05;100.00;99506.34;6308926;20;2756633;-61
2023/09/23 22:04:10;;;;;;;;;9.20;8.60;;;;;16.18;100.00;99507.84;6307274;20;2770288;-60
2023/09/23 22:06:41;;;;;;;;;6.83;6.83;;;;;16.32;100.00;99514.75;6325439;20;1788967;-62
2023/09/23 22:09:11;;;;;;;;;7.80;7.80;;;;;15.89;100.00;99513.09;6338511;20;2737812;-62
2023/09/23 22:11:42;;;;;;;;;8.00;8.00;;;;;16.09;100.00;99507.78;6337715;20;2752418;-60
2023/09/23 22:14:12;;;;;;;;;6.80;5.80;;;;;16.36;100.00;99516.22;6304581;20;2744082;-60
2023/09/23 22:16:42;;;;;;;;;5.00;5.00;;;;;16.29;100.00;99516.88;6333764;20;2743017;-60
2023/09/23 22:19:12;;;;;;;;;8.00;8.00;;;;;16.49;100.00;99515.13;6337146;20;2735761;-60
2023/09/23 22:21:43;;;;;;;;;9.40;6.40;;;;;16.46;100.00;99508.97;6333318;20;2738858;-61
2023/09/23 22:24:13;;;;;;;;;5.60;5.40;;;;;16.55;100.00;99501.03;6337018;20;2743078;-62
2023/09/23 22:26:41;;;;;;;;;6.00;6.00;;;;;16.51;100.00;99513.13;6311331;20;2741016;-62
2023/09/23 22:29:11;;;;;;;;;7.00;7.00;;;;;16.35;100.00;99517.22;6286889;20;2744030;-60
2023/09/23 22:31:39;;;;;;;;;7.50;7.00;;;;;16.38;100.00;99516.09;6288117;20;2727365;-60
2023/09/23 22:34:09;;;;;;;;;7.60;7.60;;;;;16.24;100.00;99511.84;6311118;20;2738822;-63
2023/09/23 22:36:39;;;;;;;;;7.20;7.20;;;;;16.45;100.00;99519.94;6336656;20;2740798;-62
2023/09/23 22:39:12;;;;;;;;;7.00;7.00;;;;;16.45;100.00;99515.38;6339021;20;2748199;-62
2023/09/23 22:41:42;;;;;;;;;8.40;7.60;;;;;16.61;100.00;99519.44;6340069;20;2738875;-59
2023/09/23 22:44:12;;;;;;;;;7.20;6.20;;;;;16.67;100.00;99524.34;6338866;20;2737811;-62
2023/09/23 22:46:42;;;;;;;;;7.40;7.00;;;;;16.59;100.00;99522.31;6340568;20;2732564;-61
2023/09/23 22:49:15;;;;;;;;;7.00;6.40;;;;;16.50;100.00;99528.53;6338932;20;2744141;-62
2023/09/23 22:51:45;;;;;;;;;8.00;6.00;;;;;16.17;100.00;99525.09;6339542;20;2739869;-61
2023/09/23 22:54:14;;;;;;;;;5.60;5.60;;;;;16.52;100.00;99540.09;6338428;20;2744190;-60
2023/09/23 22:56:45;;;;;;;;;8.80;8.80;;;;;16.62;100.00;99540.16;6337953;20;2754511;-61
2023/09/23 22:59:14;;;;;;;;;7.00;7.00;;;;;16.46;100.00;99537.94;6339841;20;2743102;-61
2023/09/23 23:01:44;;;;;;;;;6.40;6.40;;;;;16.79;100.00;99539.50;6339073;20;2741022;-60
2023/09/23 23:04:14;;;;;;;;;6.20;6.20;;;;;16.71;100.00;99542.03;6340822;20;2744119;-60
2023/09/23 23:06:43;;;;;;;;;7.40;7.40;;;;;16.46;100.00;99548.78;6337428;20;2731586;-60
2023/09/23 23:09:14;;;;;;;;;11.00;10.00;;;;;16.37;100.00;99555.00;6314455;20;2796137;-61
2023/09/23 23:11:43;;;;;;;;;13.67;13.67;;;;;16.40;100.00;99566.44;6309651;20;3527369;-61
2023/09/23 23:14:10;;;;;;;;;12.00;12.00;;;;;16.40;100.00;99561.03;6294028;20;2485770;-61
2023/09/23 23:16:38;;;;;;;;;14.00;11.00;;;;;16.36;100.00;99564.97;6283173;20;2796112;-61
2023/09/23 23:19:10;;;;;;;;;11.00;9.80;;;;;16.33;100.00;99565.25;6305464;20;2783850;-62
2023/09/23 23:21:39;;;;;;;;;10.00;10.00;;;;;16.35;100.00;99571.41;6278773;20;2791963;-62
2023/09/23 23:24:08;;;;;;;;;11.00;9.00;;;;;16.31;100.00;99564.53;6313503;20;2771094;-62
2023/09/23 23:26:36;;;;;;;;;9.33;8.00;;;;;16.43;100.00;99566.16;6309792;20;2760729;-60
2023/09/23 23:29:05;;;;;;;;;10.00;7.00;;;;;16.26;100.00;99561.34;6319393;20;2748673;-62
2023/09/23 23:31:34;;;;;;;;;11.67;10.33;;;;;16.33;100.00;99562.53;6286647;20;2794071;-62
2023/09/23 23:34:02;;;;;;;;;9.50;9.50;;;;;16.28;100.00;99570.22;6319198;20;2771617;-61
2023/09/23 23:36:32;;;;;;;;;12.00;10.00;;;;;16.13;100.00;99560.72;6281711;20;2798226;-62
2023/09/23 23:39:05;;;;;;;;;8.80;8.80;;;;;16.07;100.00;99561.25;6309078;20;2773189;-62
2023/09/23 23:41:35;;;;;;;;;10.20;10.00;;;;;16.22;100.00;99563.50;6307171;20;2787801;-62
2023/09/23 23:44:05;;;;;;;;;11.00;11.00;;;;;16.11;100.00;99560.81;6279224;20;2786767;-62
2023/09/23 23:46:32;;;;;;;;;10.00;10.00;;;;;16.26;100.00;99568.63;6314703;20;2785708;-62
2023/09/23 23:49:03;;;;;;;;;13.80;11.20;;;;;16.38;100.00;99579.25;6304219;20;2783874;-59
2023/09/23 23:51:33;;;;;;;;;11.67;9.00;;;;;16.12;100.00;99567.13;6276499;20;2766022;-62
2023/09/23 23:54:05;;;;;;;;;9.00;9.00;;;;;16.17;100.00;99576.56;6312164;20;2752604;-60
2023/09/23 23:56:33;;;;;;;;;10.50;10.50;;;;;16.37;100.00;99577.53;6315678;20;2779454;-61
2023/09/23 23:59:01;;;;;;;;;10.00;8.50;;;;;16.45;100.00;99585.00;6287364;20;2770093;-61
